sensor_id;sensor_type;location;lat;lon;timestamp;pressure;altitude;pressure_sealevel;temperature;humidity
57885;BME280;43703;51.060;-0.086;2024-01-15T00:01:35;99533.97;;;3.14;100.00
57885;BME280;43703;51.060;-0.086;2024-01-15T00:04:05;99537.73;;;3.01;100.00
57885;BME280;43703;51.060;-0.086;2024-01-15T00:06:25;99533.40;;;3.11;100.00
57885;BME280;43703;51.060;-0.086;2024-01-15T00:08:50;99529.97;;;3.22;100.00
57885;BME280;43703;51.060;-0.086;2024-01-15T00:11:15;99530.24;;;2.90;100.00
57885;BME280;43703;51.060;-0.086;2024-01-15T00:13:40;99526.92;;;2.87;88.66
57885;BME280;43703;51.060;-0.086;2024-01-15T00:16:06;99530.47;;;2.53;96.01
57885;BME280;43703;51.060;-0.086;2024-01-15T00:18:33;99528.02;;;2.76;100.00
57885;BME280;43703;51.060;-0.086;2024-01-15T00:20:56;99534.41;;;2.24;94.22
57885;BME280;43703;51.060;-0.086;2024-01-15T00:23:26;99535.91;;;2.15;99.82
57885;BME280;43703;51.060;-0.086;2024-01-15T00:25:46;99531.62;;;2.06;97.03
57885;BME280;43703;51.060;-0.086;2024-01-15T00:28:16;99530.64;;;2.03;100.00
57885;BME280;43703;51.060;-0.086;2024-01-15T00:30:36;99528.62;;;2.29;99.52
57885;BME280;43703;51.060;-0.086;2024-01-15T00:33:04;99524.21;;;2.40;100.00
57885;BME280;43703;51.060;-0.086;2024-01-15T00:35:28;99524.27;;;2.36;100.00
57885;BME280;43703;51.060;-0.086;2024-01-15T00:37:52;99520.45;;;1.91;100.00
57885;BME280;43703;51.060;-0.086;2024-01-15T00:40:17;99515.61;;;2.40;100.00
57885;BME280;43703;51.060;-0.086;2024-01-15T00:42:42;99514.49;;;2.19;100.00
57885;BME280;43703;51.060;-0.086;2024-01-15T00:45:08;99515.40;;;2.19;100.00
57885;BME280;43703;51.060;-0.086;2024-01-15T00:47:32;99516.20;;;2.16;100.00
57885;BME280;43703;51.060;-0.086;2024-01-15T00:49:57;99519.84;;;2.04;100.00
57885;BME280;43703;51.060;-0.086;2024-01-15T00:52:22;99520.08;;;1.91;100.00
57885;BME280;43703;51.060;-0.086;2024-01-15T00:54:49;99518.17;;;1.89;100.00
57885;BME280;43703;51.060;-0.086;2024-01-15T00:57:13;99515.86;;;1.99;100.00
57885;BME280;43703;51.060;-0.086;2024-01-15T00:59:38;99516.09;;;1.68;100.00
57885;BME280;43703;51.060;-0.086;2024-01-15T01:02:03;99514.06;;;1.60;100.00
57885;BME280;43703;51.060;-0.086;2024-01-15T01:04:33;99515.41;;;1.48;100.00
57885;BME280;43703;51.060;-0.086;2024-01-15T01:06:53;99513.25;;;1.34;100.00
57885;BME280;43703;51.060;-0.086;2024-01-15T01:09:18;99509.51;;;1.38;100.00
57885;BME280;43703;51.060;-0.086;2024-01-15T01:11:44;99507.88;;;1.33;100.00
57885;BME280;43703;51.060;-0.086;2024-01-15T01:14:09;99511.74;;;1.49;100.00
57885;BME280;43703;51.060;-0.086;2024-01-15T01:16:34;99506.18;;;1.51;100.00
57885;BME280;43703;51.060;-0.086;2024-01-15T01:18:59;99507.57;;;1.31;100.00
57885;BME280;43703;51.060;-0.086;2024-01-15T01:21:24;99509.80;;;1.48;100.00
57885;BME280;43703;51.060;-0.086;2024-01-15T01:23:54;99515.08;;;1.17;100.00
57885;BME280;43703;51.060;-0.086;2024-01-15T01:26:15;99512.65;;;1.24;100.00
57885;BME280;43703;51.060;-0.086;2024-01-15T01:28:39;99509.75;;;0.88;100.00
57885;BME280;43703;51.060;-0.086;2024-01-15T01:31:05;99510.16;;;1.07;100.00
57885;BME280;43703;51.060;-0.086;2024-01-15T01:33:30;99510.20;;;0.90;100.00
57885;BME280;43703;51.060;-0.086;2024-01-15T01:36:01;99505.99;;;0.78;100.00
57885;BME280;43703;51.060;-0.086;2024-01-15T01:38:21;99502.00;;;0.67;100.00
57885;BME280;43703;51.060;-0.086;2024-01-15T01:40:46;99501.75;;;0.69;100.00
57885;BME280;43703;51.060;-0.086;2024-01-15T01:43:11;99501.58;;;0.60;100.00
57885;BME280;43703;51.060;-0.086;2024-01-15T01:45:36;99499.23;;;0.62;100.00
57885;BME280;43703;51.060;-0.086;2024-01-15T01:48:06;99498.14;;;0.57;100.00
57885;BME280;43703;51.060;-0.086;2024-01-15T01:50:27;99492.01;;;0.55;100.00
57885;BME280;43703;51.060;-0.086;2024-01-15T01:52:51;99493.72;;;0.53;100.00
57885;BME280;43703;51.060;-0.086;2024-01-15T01:55:16;99497.68;;;0.46;100.00
57885;BME280;43703;51.060;-0.086;2024-01-15T01:57:42;99500.40;;;0.33;100.00
57885;BME280;43703;51.060;-0.086;2024-01-15T02:00:07;99503.14;;;0.34;100.00
57885;BME280;43703;51.060;-0.086;2024-01-15T02:02:36;99497.56;;;0.68;100.00
57885;BME280;43703;51.060;-0.086;2024-01-15T02:04:56;99495.68;;;0.45;100.00
57885;BME280;43703;51.060;-0.086;2024-01-15T02:07:21;99491.65;;;0.41;100.00
57885;BME280;43703;51.060;-0.086;2024-01-15T02:09:46;99491.71;;;0.43;100.00
57885;BME280;43703;51.060;-0.086;2024-01-15T02:12:17;99487.01;;;0.46;100.00
57885;BME280;43703;51.060;-0.086;2024-01-15T02:14:39;99484.97;;;0.42;100.00
57885;BME280;43703;51.060;-0.086;2024-01-15T02:17:02;99481.76;;;0.38;100.00
57885;BME280;43703;51.060;-0.086;2024-01-15T02:19:27;99479.54;;;0.37;100.00
57885;BME280;43703;51.060;-0.086;2024-01-15T02:21:52;99485.39;;;0.40;100.00
57885;BME280;43703;51.060;-0.086;2024-01-15T02:24:17;99484.33;;;0.43;100.00
57885;BME280;43703;51.060;-0.086;2024-01-15T02:26:42;99485.99;;;0.48;100.00
57885;BME280;43703;51.060;-0.086;2024-01-15T02:29:07;99489.12;;;0.45;100.00
57885;BME280;43703;51.060;-0.086;2024-01-15T02:31:32;99492.05;;;0.28;100.00
57885;BME280;43703;51.060;-0.086;2024-01-15T02:34:02;99494.91;;;0.14;100.00
57885;BME280;43703;51.060;-0.086;2024-01-15T02:36:22;99495.87;;;0.13;100.00
57885;BME280;43703;51.060;-0.086;2024-01-15T02:38:47;99498.74;;;0.22;100.00
57885;BME280;43703;51.060;-0.086;2024-01-15T02:41:17;99495.92;;;0.27;100.00
57885;BME280;43703;51.060;-0.086;2024-01-15T02:43:37;99500.76;;;0.32;100.00
57885;BME280;43703;51.060;-0.086;2024-01-15T02:46:03;99494.83;;;0.22;100.00
57885;BME280;43703;51.060;-0.086;2024-01-15T02:48:27;99491.75;;;0.49;100.00
57885;BME280;43703;51.060;-0.086;2024-01-15T02:50:53;99489.76;;;0.20;100.00
57885;BME280;43703;51.060;-0.086;2024-01-15T02:53:18;99489.92;;;0.38;100.00
57885;BME280;43703;51.060;-0.086;2024-01-15T02:55:43;99487.08;;;-0.08;100.00
57885;BME280;43703;51.060;-0.086;2024-01-15T02:58:08;99488.80;;;-0.05;100.00
57885;BME280;43703;51.060;-0.086;2024-01-15T03:00:33;99483.62;;;-0.14;100.00
57885;BME280;43703;51.060;-0.086;2024-01-15T03:02:58;99482.35;;;-0.08;100.00
57885;BME280;43703;51.060;-0.086;2024-01-15T03:05:23;99485.34;;;0.03;100.00
57885;BME280;43703;51.060;-0.086;2024-01-15T03:07:48;99481.03;;;0.26;100.00
57885;BME280;43703;51.060;-0.086;2024-01-15T03:10:13;99478.39;;;-0.08;100.00
57885;BME280;43703;51.060;-0.086;2024-01-15T03:12:39;99475.42;;;0.09;100.00
57885;BME280;43703;51.060;-0.086;2024-01-15T03:15:05;99472.98;;;-0.24;100.00
57885;BME280;43703;51.060;-0.086;2024-01-15T03:17:29;99472.18;;;0.17;100.00
57885;BME280;43703;51.060;-0.086;2024-01-15T03:19:59;99481.79;;;0.19;100.00
57885;BME280;43703;51.060;-0.086;2024-01-15T03:22:19;99480.14;;;0.14;100.00
57885;BME280;43703;51.060;-0.086;2024-01-15T03:24:44;99482.96;;;-0.38;100.00
57885;BME280;43703;51.060;-0.086;2024-01-15T03:27:10;99484.69;;;0.10;100.00
57885;BME280;43703;51.060;-0.086;2024-01-15T03:29:35;99484.36;;;0.22;100.00
57885;BME280;43703;51.060;-0.086;2024-01-15T03:32:00;99483.17;;;-0.27;100.00
57885;BME280;43703;51.060;-0.086;2024-01-15T03:34:25;99489.77;;;0.26;100.00
57885;BME280;43703;51.060;-0.086;2024-01-15T03:36:50;99488.24;;;-0.04;100.00
57885;BME280;43703;51.060;-0.086;2024-01-15T03:39:17;99491.16;;;-0.07;100.00
57885;BME280;43703;51.060;-0.086;2024-01-15T03:41:41;99490.16;;;0.11;100.00
57885;BME280;43703;51.060;-0.086;2024-01-15T03:44:06;99490.58;;;0.04;100.00
57885;BME280;43703;51.060;-0.086;2024-01-15T03:46:31;99487.96;;;-0.04;100.00
57885;BME280;43703;51.060;-0.086;2024-01-15T03:48:57;99487.20;;;-0.24;100.00
57885;BME280;43703;51.060;-0.086;2024-01-15T03:51:24;99489.48;;;-0.08;100.00
57885;BME280;43703;51.060;-0.086;2024-01-15T03:53:48;99489.67;;;-0.20;100.00
57885;BME280;43703;51.060;-0.086;2024-01-15T03:56:13;99488.14;;;-0.22;100.00
57885;BME280;43703;51.060;-0.086;2024-01-15T03:58:38;99485.45;;;-0.74;100.00
57885;BME280;43703;51.060;-0.086;2024-01-15T04:01:03;99485.09;;;-0.31;100.00
57885;BME280;43703;51.060;-0.086;2024-01-15T04:03:28;99477.77;;;-0.33;100.00
57885;BME280;43703;51.060;-0.086;2024-01-15T04:05:58;99474.67;;;-0.39;100.00
57885;BME280;43703;51.060;-0.086;2024-01-15T04:08:19;99473.33;;;-0.16;100.00
57885;BME280;43703;51.060;-0.086;2024-01-15T04:10:44;99478.45;;;-0.69;100.00
57885;BME280;43703;51.060;-0.086;2024-01-15T04:13:09;99475.28;;;-0.50;100.00
57885;BME280;43703;51.060;-0.086;2024-01-15T04:15:34;99470.47;;;-0.46;100.00
57885;BME280;43703;51.060;-0.086;2024-01-15T04:17:59;99472.42;;;-0.57;100.00
57885;BME280;43703;51.060;-0.086;2024-01-15T04:20:29;99471.24;;;-0.54;100.00
57885;BME280;43703;51.060;-0.086;2024-01-15T04:22:50;99474.01;;;-0.38;100.00
57885;BME280;43703;51.060;-0.086;2024-01-15T04:25:15;99473.73;;;-0.30;100.00
57885;BME280;43703;51.060;-0.086;2024-01-15T04:27:40;99472.44;;;-0.48;100.00
57885;BME280;43703;51.060;-0.086;2024-01-15T04:30:06;99467.57;;;-0.60;100.00
57885;BME280;43703;51.060;-0.086;2024-01-15T04:32:32;99461.11;;;-0.37;100.00
57885;BME280;43703;51.060;-0.086;2024-01-15T04:34:55;99457.01;;;-0.35;100.00
57885;BME280;43703;51.060;-0.086;2024-01-15T04:37:20;99453.87;;;-0.34;100.00
57885;BME280;43703;51.060;-0.086;2024-01-15T04:39:45;99447.60;;;-0.31;100.00
57885;BME280;43703;51.060;-0.086;2024-01-15T04:42:10;99443.29;;;-0.32;100.00
57885;BME280;43703;51.060;-0.086;2024-01-15T04:44:36;99447.25;;;-0.33;100.00
57885;BME280;43703;51.060;-0.086;2024-01-15T04:47:01;99445.83;;;-0.40;100.00
57885;BME280;43703;51.060;-0.086;2024-01-15T04:49:26;99450.07;;;-0.39;100.00
57885;BME280;43703;51.060;-0.086;2024-01-15T04:51:51;99445.75;;;-0.39;100.00
57885;BME280;43703;51.060;-0.086;2024-01-15T04:54:16;99447.52;;;-0.38;100.00
57885;BME280;43703;51.060;-0.086;2024-01-15T04:56:46;99445.97;;;-0.42;100.00
57885;BME280;43703;51.060;-0.086;2024-01-15T04:59:06;99445.07;;;-0.41;100.00
57885;BME280;43703;51.060;-0.086;2024-01-15T05:01:31;99444.67;;;-0.35;100.00
57885;BME280;43703;51.060;-0.086;2024-01-15T05:03:56;99439.40;;;-0.55;100.00
57885;BME280;43703;51.060;-0.086;2024-01-15T05:06:21;99438.83;;;-0.32;100.00
57885;BME280;43703;51.060;-0.086;2024-01-15T05:08:46;99441.43;;;-0.35;100.00
57885;BME280;43703;51.060;-0.086;2024-01-15T05:11:12;99440.84;;;-0.41;100.00
57885;BME280;43703;51.060;-0.086;2024-01-15T05:13:37;99439.56;;;-0.43;100.00
57885;BME280;43703;51.060;-0.086;2024-01-15T05:16:02;99441.30;;;-0.44;100.00
57885;BME280;43703;51.060;-0.086;2024-01-15T05:18:27;99440.83;;;-0.43;100.00
57885;BME280;43703;51.060;-0.086;2024-01-15T05:20:52;99440.07;;;-0.43;100.00
57885;BME280;43703;51.060;-0.086;2024-01-15T05:23:17;99439.67;;;-0.40;100.00
57885;BME280;43703;51.060;-0.086;2024-01-15T05:25:42;99439.49;;;-0.39;100.00
57885;BME280;43703;51.060;-0.086;2024-01-15T05:28:07;99438.07;;;-0.65;100.00
57885;BME280;43703;51.060;-0.086;2024-01-15T05:30:32;99437.01;;;-0.51;100.00
57885;BME280;43703;51.060;-0.086;2024-01-15T05:32:57;99431.07;;;-0.18;100.00
57885;BME280;43703;51.060;-0.086;2024-01-15T05:35:22;99429.56;;;-0.34;100.00
57885;BME280;43703;51.060;-0.086;2024-01-15T05:37:48;99430.99;;;-0.27;100.00
57885;BME280;43703;51.060;-0.086;2024-01-15T05:40:13;99432.40;;;-0.11;100.00
57885;BME280;43703;51.060;-0.086;2024-01-15T05:42:39;99430.88;;;-0.20;100.00
57885;BME280;43703;51.060;-0.086;2024-01-15T05:45:09;99435.41;;;-0.31;100.00
57885;BME280;43703;51.060;-0.086;2024-01-15T05:47:28;99435.51;;;-0.33;100.00
57885;BME280;43703;51.060;-0.086;2024-01-15T05:49:54;99435.80;;;-0.34;100.00
57885;BME280;43703;51.060;-0.086;2024-01-15T05:52:19;99438.77;;;-0.24;100.00
57885;BME280;43703;51.060;-0.086;2024-01-15T05:54:44;99443.40;;;-0.20;100.00
57885;BME280;43703;51.060;-0.086;2024-01-15T05:57:09;99443.43;;;-0.14;100.00
57885;BME280;43703;51.060;-0.086;2024-01-15T05:59:34;99447.11;;;-0.41;100.00
57885;BME280;43703;51.060;-0.086;2024-01-15T06:01:59;99443.90;;;-0.10;100.00
57885;BME280;43703;51.060;-0.086;2024-01-15T06:04:24;99446.85;;;-0.34;100.00
57885;BME280;43703;51.060;-0.086;2024-01-15T06:06:49;99452.46;;;-0.22;100.00
57885;BME280;43703;51.060;-0.086;2024-01-15T06:09:14;99455.06;;;-0.21;100.00
57885;BME280;43703;51.060;-0.086;2024-01-15T06:11:39;99458.54;;;-0.44;100.00
57885;BME280;43703;51.060;-0.086;2024-01-15T06:14:04;99458.96;;;-0.26;100.00
57885;BME280;43703;51.060;-0.086;2024-01-15T06:16:29;99463.55;;;-0.20;100.00
57885;BME280;43703;51.060;-0.086;2024-01-15T06:18:55;99464.39;;;-0.18;100.00
57885;BME280;43703;51.060;-0.086;2024-01-15T06:21:20;99463.35;;;-0.18;100.00
57885;BME280;43703;51.060;-0.086;2024-01-15T06:23:45;99457.28;;;-0.71;100.00
57885;BME280;43703;51.060;-0.086;2024-01-15T06:26:15;99460.34;;;-0.24;100.00
57885;BME280;43703;51.060;-0.086;2024-01-15T06:28:35;99457.94;;;-0.07;100.00
57885;BME280;43703;51.060;-0.086;2024-01-15T06:31:00;99462.92;;;-0.44;100.00
57885;BME280;43703;51.060;-0.086;2024-01-15T06:33:25;99470.07;;;-0.53;100.00
57885;BME280;43703;51.060;-0.086;2024-01-15T06:35:50;99475.15;;;-0.49;100.00
57885;BME280;43703;51.060;-0.086;2024-01-15T06:38:15;99470.94;;;-0.47;100.00
57885;BME280;43703;51.060;-0.086;2024-01-15T06:40:41;99466.71;;;-0.47;100.00
57885;BME280;43703;51.060;-0.086;2024-01-15T06:43:05;99466.80;;;-0.46;100.00
57885;BME280;43703;51.060;-0.086;2024-01-15T06:45:31;99469.42;;;-0.53;100.00
57885;BME280;43703;51.060;-0.086;2024-01-15T06:47:56;99471.10;;;-0.57;100.00
57885;BME280;43703;51.060;-0.086;2024-01-15T06:50:21;99473.43;;;-0.53;100.00
57885;BME280;43703;51.060;-0.086;2024-01-15T06:52:46;99473.69;;;-0.50;100.00
57885;BME280;43703;51.060;-0.086;2024-01-15T06:55:11;99471.47;;;-0.67;100.00
57885;BME280;43703;51.060;-0.086;2024-01-15T06:57:36;99468.82;;;-0.69;100.00
57885;BME280;43703;51.060;-0.086;2024-01-15T07:00:01;99472.57;;;-0.78;100.00
57885;BME280;43703;51.060;-0.086;2024-01-15T07:02:26;99466.67;;;-0.63;100.00
57885;BME280;43703;51.060;-0.086;2024-01-15T07:04:51;99469.26;;;-0.72;100.00
57885;BME280;43703;51.060;-0.086;2024-01-15T07:07:16;99476.73;;;-0.48;100.00
57885;BME280;43703;51.060;-0.086;2024-01-15T07:09:41;99475.73;;;-0.53;100.00
57885;BME280;43703;51.060;-0.086;2024-01-15T07:12:06;99469.13;;;-0.52;100.00
57885;BME280;43703;51.060;-0.086;2024-01-15T07:14:31;99480.84;;;-0.38;100.00
57885;BME280;43703;51.060;-0.086;2024-01-15T07:16:57;99484.09;;;-0.31;100.00
57885;BME280;43703;51.060;-0.086;2024-01-15T07:19:22;99486.86;;;-0.42;100.00
57885;BME280;43703;51.060;-0.086;2024-01-15T07:21:47;99487.65;;;-0.55;100.00
57885;BME280;43703;51.060;-0.086;2024-01-15T07:24:12;99492.25;;;-0.35;100.00
57885;BME280;43703;51.060;-0.086;2024-01-15T07:26:37;99491.62;;;-0.04;100.00
57885;BME280;43703;51.060;-0.086;2024-01-15T07:29:02;99495.74;;;-0.56;100.00
57885;BME280;43703;51.060;-0.086;2024-01-15T07:31:27;99493.62;;;-0.43;100.00
57885;BME280;43703;51.060;-0.086;2024-01-15T07:33:52;99493.17;;;-0.55;100.00
57885;BME280;43703;51.060;-0.086;2024-01-15T07:36:18;99491.51;;;-0.44;100.00
57885;BME280;43703;51.060;-0.086;2024-01-15T07:38:42;99497.10;;;-0.43;100.00
57885;BME280;43703;51.060;-0.086;2024-01-15T07:41:07;99503.12;;;-0.55;100.00
57885;BME280;43703;51.060;-0.086;2024-01-15T07:43:33;99506.03;;;-0.40;100.00
57885;BME280;43703;51.060;-0.086;2024-01-15T07:45:58;99502.26;;;-0.31;100.00
57885;BME280;43703;51.060;-0.086;2024-01-15T07:48:23;99504.15;;;-0.24;100.00
57885;BME280;43703;51.060;-0.086;2024-01-15T07:50:48;99507.10;;;-0.28;100.00
57885;BME280;43703;51.060;-0.086;2024-01-15T07:53:13;99515.49;;;-0.39;100.00
57885;BME280;43703;51.060;-0.086;2024-01-15T07:55:43;99521.61;;;-0.40;100.00
57885;BME280;43703;51.060;-0.086;2024-01-15T07:58:03;99520.56;;;-0.37;100.00
57885;BME280;43703;51.060;-0.086;2024-01-15T08:00:28;99518.46;;;-0.44;100.00
57885;BME280;43703;51.060;-0.086;2024-01-15T08:02:53;99521.68;;;-0.38;100.00
57885;BME280;43703;51.060;-0.086;2024-01-15T08:05:18;99524.79;;;-0.40;100.00
57885;BME280;43703;51.060;-0.086;2024-01-15T08:07:48;99526.86;;;-0.34;100.00
57885;BME280;43703;51.060;-0.086;2024-01-15T08:10:09;99530.33;;;-0.47;100.00
57885;BME280;43703;51.060;-0.086;2024-01-15T08:12:33;99537.60;;;-0.57;100.00
57885;BME280;43703;51.060;-0.086;2024-01-15T08:14:59;99537.67;;;-0.63;100.00
57885;BME280;43703;51.060;-0.086;2024-01-15T08:17:24;99536.15;;;-0.50;100.00
57885;BME280;43703;51.060;-0.086;2024-01-15T08:19:49;99532.71;;;-0.73;100.00
57885;BME280;43703;51.060;-0.086;2024-01-15T08:22:14;99534.53;;;-0.54;100.00
57885;BME280;43703;51.060;-0.086;2024-01-15T08:24:39;99528.08;;;-0.48;100.00
57885;BME280;43703;51.060;-0.086;2024-01-15T08:27:05;99533.83;;;-0.80;100.00
57885;BME280;43703;51.060;-0.086;2024-01-15T08:29:36;99535.49;;;-0.50;100.00
57885;BME280;43703;51.060;-0.086;2024-01-15T08:31:58;99536.97;;;-0.58;100.00
57885;BME280;43703;51.060;-0.086;2024-01-15T08:34:23;99538.50;;;-0.60;100.00
57885;BME280;43703;51.060;-0.086;2024-01-15T08:36:47;99540.34;;;-0.43;100.00
57885;BME280;43703;51.060;-0.086;2024-01-15T08:39:15;99541.10;;;-0.54;100.00
57885;BME280;43703;51.060;-0.086;2024-01-15T08:41:42;99539.73;;;-0.75;100.00
57885;BME280;43703;51.060;-0.086;2024-01-15T08:44:18;99542.76;;;-0.68;100.00
57885;BME280;43703;51.060;-0.086;2024-01-15T08:46:34;99538.68;;;-0.64;100.00
57885;BME280;43703;51.060;-0.086;2024-01-15T08:48:51;99538.64;;;-0.73;100.00
57885;BME280;43703;51.060;-0.086;2024-01-15T08:51:16;99540.52;;;-0.76;100.00
57885;BME280;43703;51.060;-0.086;2024-01-15T09:01:01;99549.94;;;-0.49;100.00
57885;BME280;43703;51.060;-0.086;2024-01-15T09:03:21;99550.43;;;-0.09;100.00
57885;BME280;43703;51.060;-0.086;2024-01-15T09:05:47;99554.66;;;-0.21;100.00
57885;BME280;43703;51.060;-0.086;2024-01-15T09:08:12;99559.81;;;-0.05;100.00
57885;BME280;43703;51.060;-0.086;2024-01-15T09:10:37;99567.84;;;0.01;100.00
57885;BME280;43703;51.060;-0.086;2024-01-15T09:13:02;99570.02;;;-0.41;100.00
57885;BME280;43703;51.060;-0.086;2024-01-15T09:15:27;99571.05;;;0.03;100.00
57885;BME280;43703;51.060;-0.086;2024-01-15T09:17:52;99565.71;;;0.22;100.00
57885;BME280;43703;51.060;-0.086;2024-01-15T09:20:17;99560.89;;;0.39;100.00
57885;BME280;43703;51.060;-0.086;2024-01-15T09:22:42;99562.04;;;0.39;100.00
57885;BME280;43703;51.060;-0.086;2024-01-15T09:25:08;99561.12;;;0.90;100.00
57885;BME280;43703;51.060;-0.086;2024-01-15T09:27:32;99562.59;;;1.29;100.00
57885;BME280;43703;51.060;-0.086;2024-01-15T09:30:03;99566.23;;;1.96;100.00
57885;BME280;43703;51.060;-0.086;2024-01-15T09:32:22;99564.84;;;2.44;100.00
57885;BME280;43703;51.060;-0.086;2024-01-15T09:34:48;99567.71;;;3.69;100.00
57885;BME280;43703;51.060;-0.086;2024-01-15T09:37:14;99569.22;;;4.41;100.00
57885;BME280;43703;51.060;-0.086;2024-01-15T09:39:38;99572.89;;;5.38;100.00
57885;BME280;43703;51.060;-0.086;2024-01-15T09:42:04;99577.49;;;6.21;100.00
57885;BME280;43703;51.060;-0.086;2024-01-15T09:44:29;99580.62;;;6.84;100.00
57885;BME280;43703;51.060;-0.086;2024-01-15T09:46:55;99581.16;;;6.99;100.00
57885;BME280;43703;51.060;-0.086;2024-01-15T09:49:21;99587.16;;;7.18;100.00
57885;BME280;43703;51.060;-0.086;2024-01-15T09:51:47;99586.59;;;7.50;100.00
57885;BME280;43703;51.060;-0.086;2024-01-15T09:54:12;99582.08;;;7.38;100.00
57885;BME280;43703;51.060;-0.086;2024-01-15T09:56:38;99590.04;;;7.71;100.00
57885;BME280;43703;51.060;-0.086;2024-01-15T09:59:04;99592.55;;;7.77;100.00
57885;BME280;43703;51.060;-0.086;2024-01-15T10:01:31;99593.92;;;7.80;100.00
57885;BME280;43703;51.060;-0.086;2024-01-15T10:03:56;99596.75;;;7.35;100.00
57885;BME280;43703;51.060;-0.086;2024-01-15T10:06:22;99601.32;;;7.06;100.00
57885;BME280;43703;51.060;-0.086;2024-01-15T10:08:49;99599.98;;;7.07;100.00
57885;BME280;43703;51.060;-0.086;2024-01-15T10:11:14;99604.45;;;6.68;100.00
57885;BME280;43703;51.060;-0.086;2024-01-15T10:13:39;99613.93;;;6.13;100.00
57885;BME280;43703;51.060;-0.086;2024-01-15T10:16:05;99611.54;;;5.01;83.16
57885;BME280;43703;51.060;-0.086;2024-01-15T10:18:31;99618.16;;;4.66;98.84
57885;BME280;43703;51.060;-0.086;2024-01-15T10:20:57;99619.83;;;4.27;100.00
57885;BME280;43703;51.060;-0.086;2024-01-15T10:23:22;99618.80;;;3.92;100.00
57885;BME280;43703;51.060;-0.086;2024-01-15T10:25:47;99615.30;;;3.77;90.47
57885;BME280;43703;51.060;-0.086;2024-01-15T10:28:13;99616.44;;;3.18;90.54
57885;BME280;43703;51.060;-0.086;2024-01-15T10:30:37;99616.76;;;3.63;85.75
57885;BME280;43703;51.060;-0.086;2024-01-15T10:33:03;99618.79;;;3.71;91.92
57885;BME280;43703;51.060;-0.086;2024-01-15T10:35:29;99624.66;;;3.44;85.81
57885;BME280;43703;51.060;-0.086;2024-01-15T10:37:52;99624.75;;;3.42;85.94
57885;BME280;43703;51.060;-0.086;2024-01-15T10:40:19;99624.14;;;3.52;87.51
57885;BME280;43703;51.060;-0.086;2024-01-15T10:42:42;99624.97;;;3.60;78.20
57885;BME280;43703;51.060;-0.086;2024-01-15T10:45:12;99623.32;;;3.58;89.60
57885;BME280;43703;51.060;-0.086;2024-01-15T10:47:32;99625.32;;;3.99;91.05
57885;BME280;43703;51.060;-0.086;2024-01-15T10:49:57;99628.66;;;3.74;84.58
57885;BME280;43703;51.060;-0.086;2024-01-15T10:52:23;99628.65;;;3.63;74.08
57885;BME280;43703;51.060;-0.086;2024-01-15T10:54:48;99631.17;;;3.51;77.39
57885;BME280;43703;51.060;-0.086;2024-01-15T10:57:13;99634.18;;;3.32;74.56
57885;BME280;43703;51.060;-0.086;2024-01-15T10:59:37;99638.43;;;3.54;82.16
57885;BME280;43703;51.060;-0.086;2024-01-15T11:02:03;99639.86;;;3.47;70.89
57885;BME280;43703;51.060;-0.086;2024-01-15T11:04:28;99639.99;;;3.39;79.83
57885;BME280;43703;51.060;-0.086;2024-01-15T11:06:53;99644.79;;;3.34;74.37
57885;BME280;43703;51.060;-0.086;2024-01-15T11:09:17;99638.59;;;3.17;95.51
57885;BME280;43703;51.060;-0.086;2024-01-15T11:11:44;99635.49;;;3.61;87.49
57885;BME280;43703;51.060;-0.086;2024-01-15T11:14:08;99635.90;;;3.00;74.69
57885;BME280;43703;51.060;-0.086;2024-01-15T11:19:02;99637.30;;;3.39;80.85
57885;BME280;43703;51.060;-0.086;2024-01-15T11:21:24;99628.25;;;3.41;81.97
57885;BME280;43703;51.060;-0.086;2024-01-15T11:23:49;99626.08;;;3.20;73.71
57885;BME280;43703;51.060;-0.086;2024-01-15T11:31:03;99624.40;;;3.08;71.67
57885;BME280;43703;51.060;-0.086;2024-01-15T11:33:34;99628.81;;;3.36;79.18
57885;BME280;43703;51.060;-0.086;2024-01-15T11:35:53;99628.46;;;3.69;97.43
57885;BME280;43703;51.060;-0.086;2024-01-15T11:38:26;99628.22;;;3.26;95.52
57885;BME280;43703;51.060;-0.086;2024-01-15T11:40:50;99622.50;;;3.51;80.34
57885;BME280;43703;51.060;-0.086;2024-01-15T11:43:09;99619.77;;;3.12;73.34
57885;BME280;43703;51.060;-0.086;2024-01-15T11:45:34;99621.62;;;3.27;71.53
57885;BME280;43703;51.060;-0.086;2024-01-15T11:48:09;99622.25;;;3.24;74.87
57885;BME280;43703;51.060;-0.086;2024-01-15T11:50:24;99622.29;;;3.22;82.32
57885;BME280;43703;51.060;-0.086;2024-01-15T11:52:56;99626.83;;;3.33;87.31
57885;BME280;43703;51.060;-0.086;2024-01-15T11:55:19;99634.45;;;3.32;100.00
57885;BME280;43703;51.060;-0.086;2024-01-15T11:57:46;99633.63;;;3.80;90.72
57885;BME280;43703;51.060;-0.086;2024-01-15T12:00:05;99632.78;;;3.54;77.07
57885;BME280;43703;51.060;-0.086;2024-01-15T12:02:29;99633.20;;;3.86;75.37
57885;BME280;43703;51.060;-0.086;2024-01-15T12:04:54;99635.06;;;3.92;84.79
57885;BME280;43703;51.060;-0.086;2024-01-15T12:07:19;99633.65;;;3.93;72.21
57885;BME280;43703;51.060;-0.086;2024-01-15T12:09:44;99631.42;;;4.04;67.47
57885;BME280;43703;51.060;-0.086;2024-01-15T12:12:16;99626.81;;;4.37;74.51
57885;BME280;43703;51.060;-0.086;2024-01-15T12:14:34;99630.24;;;4.84;67.95
57885;BME280;43703;51.060;-0.086;2024-01-15T12:16:59;99631.24;;;4.93;72.02
57885;BME280;43703;51.060;-0.086;2024-01-15T12:19:24;99635.42;;;5.15;70.29
57885;BME280;43703;51.060;-0.086;2024-01-15T12:21:50;99640.80;;;5.74;76.87
57885;BME280;43703;51.060;-0.086;2024-01-15T12:24:17;99639.34;;;6.24;81.16
57885;BME280;43703;51.060;-0.086;2024-01-15T12:26:41;99644.44;;;6.61;81.83
57885;BME280;43703;51.060;-0.086;2024-01-15T12:29:07;99639.93;;;6.56;74.87
57885;BME280;43703;51.060;-0.086;2024-01-15T12:31:32;99644.18;;;6.91;62.61
57885;BME280;43703;51.060;-0.086;2024-01-15T12:33:58;99641.77;;;7.15;58.01
57885;BME280;43703;51.060;-0.086;2024-01-15T12:36:24;99645.83;;;7.36;52.01
57885;BME280;43703;51.060;-0.086;2024-01-15T12:38:50;99647.48;;;7.41;65.80
57885;BME280;43703;51.060;-0.086;2024-01-15T12:41:16;99639.81;;;7.58;49.69
57885;BME280;43703;51.060;-0.086;2024-01-15T12:43:42;99640.19;;;7.72;56.74
57885;BME280;43703;51.060;-0.086;2024-01-15T12:46:07;99638.29;;;8.15;43.96
57885;BME280;43703;51.060;-0.086;2024-01-15T12:48:34;99637.08;;;8.05;56.22
57885;BME280;43703;51.060;-0.086;2024-01-15T12:50:59;99638.49;;;8.21;57.54